sensor_id;sensor_type;location;lat;lon;timestamp;P1;durP1;ratioP1;P2;durP2;ratioP2
5277;SDS011;2662;51.194;6.614;2023-03-14T00:02:23;6.77;;;1.40;;
5277;SDS011;2662;51.194;6.614;2023-03-14T00:04:50;4.33;;;1.40;;
5277;SDS011;2662;51.194;6.614;2023-03-14T00:07:20;2.80;;;1.03;;
5277;SDS011;2662;51.194;6.614;2023-03-14T00:09:49;3.93;;;0.93;;
5277;SDS011;2662;51.194;6.614;2023-03-14T00:12:16;3.83;;;1.70;;
5277;SDS011;2662;51.194;6.614;2023-03-14T00:14:42;3.13;;;1.67;;
5277;SDS011;2662;51.194;6.614;2023-03-14T00:17:09;7.27;;;1.67;;
5277;SDS011;2662;51.194;6.614;2023-03-14T00:19:37;5.17;;;1.23;;
5277;SDS011;2662;51.194;6.614;2023-03-14T00:22:04;6.53;;;1.40;;
5277;SDS011;2662;51.194;6.614;2023-03-14T00:24:31;5.57;;;1.97;;
5277;SDS011;2662;51.194;6.614;2023-03-14T00:26:58;20.27;;;2.27;;
5277;SDS011;2662;51.194;6.614;2023-03-14T00:29:24;3.03;;;1.23;;
5277;SDS011;2662;51.194;6.614;2023-03-14T00:31:51;5.40;;;1.43;;
5277;SDS011;2662;51.194;6.614;2023-03-14T00:34:18;1.83;;;0.90;;
5277;SDS011;2662;51.194;6.614;2023-03-14T00:36:46;5.20;;;0.90;;
5277;SDS011;2662;51.194;6.614;2023-03-14T00:39:12;3.47;;;1.23;;
5277;SDS011;2662;51.194;6.614;2023-03-14T00:41:39;8.13;;;1.47;;
5277;SDS011;2662;51.194;6.614;2023-03-14T00:44:06;4.30;;;1.83;;
5277;SDS011;2662;51.194;6.614;2023-03-14T00:46:33;3.07;;;1.33;;
5277;SDS011;2662;51.194;6.614;2023-03-14T00:48:59;6.80;;;1.43;;
5277;SDS011;2662;51.194;6.614;2023-03-14T00:51:26;2.50;;;1.00;;
5277;SDS011;2662;51.194;6.614;2023-03-14T00:53:54;15.13;;;1.47;;
5277;SDS011;2662;51.194;6.614;2023-03-14T00:56:21;5.87;;;1.17;;
5277;SDS011;2662;51.194;6.614;2023-03-14T00:58:47;4.60;;;1.07;;
5277;SDS011;2662;51.194;6.614;2023-03-14T01:01:15;2.03;;;0.90;;
5277;SDS011;2662;51.194;6.614;2023-03-14T01:03:43;5.03;;;1.10;;
5277;SDS011;2662;51.194;6.614;2023-03-14T01:06:11;1.87;;;0.57;;
5277;SDS011;2662;51.194;6.614;2023-03-14T01:08:40;2.23;;;0.77;;
5277;SDS011;2662;51.194;6.614;2023-03-14T01:11:09;3.17;;;0.80;;
5277;SDS011;2662;51.194;6.614;2023-03-14T01:13:38;3.60;;;1.17;;
5277;SDS011;2662;51.194;6.614;2023-03-14T01:16:05;1.90;;;0.73;;
5277;SDS011;2662;51.194;6.614;2023-03-14T01:18:34;3.10;;;0.90;;
5277;SDS011;2662;51.194;6.614;2023-03-14T01:21:01;3.70;;;1.00;;
5277;SDS011;2662;51.194;6.614;2023-03-14T01:23:28;3.70;;;0.87;;
5277;SDS011;2662;51.194;6.614;2023-03-14T01:25:55;4.97;;;1.00;;
5277;SDS011;2662;51.194;6.614;2023-03-14T01:28:24;6.10;;;1.53;;
5277;SDS011;2662;51.194;6.614;2023-03-14T01:30:50;4.33;;;1.27;;
5277;SDS011;2662;51.194;6.614;2023-03-14T01:33:17;12.10;;;1.63;;
5277;SDS011;2662;51.194;6.614;2023-03-14T01:35:44;5.23;;;1.37;;
5277;SDS011;2662;51.194;6.614;2023-03-14T01:38:11;7.00;;;1.07;;
5277;SDS011;2662;51.194;6.614;2023-03-14T01:40:41;6.53;;;1.23;;
5277;SDS011;2662;51.194;6.614;2023-03-14T01:43:13;3.07;;;1.20;;
5277;SDS011;2662;51.194;6.614;2023-03-14T01:48:46;3.27;;;1.00;;
5277;SDS011;2662;51.194;6.614;2023-03-14T01:51:19;11.20;;;1.03;;
5277;SDS011;2662;51.194;6.614;2023-03-14T01:53:50;14.13;;;1.30;;
5277;SDS011;2662;51.194;6.614;2023-03-14T01:56:20;7.27;;;1.70;;
5277;SDS011;2662;51.194;6.614;2023-03-14T01:58:47;15.63;;;2.17;;
5277;SDS011;2662;51.194;6.614;2023-03-14T02:01:17;2.30;;;1.00;;
5277;SDS011;2662;51.194;6.614;2023-03-14T02:03:48;6.50;;;1.53;;
5277;SDS011;2662;51.194;6.614;2023-03-14T02:06:20;7.93;;;1.30;;
5277;SDS011;2662;51.194;6.614;2023-03-14T02:08:50;3.07;;;1.00;;
5277;SDS011;2662;51.194;6.614;2023-03-14T02:11:17;2.93;;;1.00;;
5277;SDS011;2662;51.194;6.614;2023-03-14T02:13:44;4.97;;;1.10;;
5277;SDS011;2662;51.194;6.614;2023-03-14T02:16:11;5.60;;;0.97;;
5277;SDS011;2662;51.194;6.614;2023-03-14T02:18:38;3.10;;;0.80;;
5277;SDS011;2662;51.194;6.614;2023-03-14T02:21:08;4.30;;;1.53;;
5277;SDS011;2662;51.194;6.614;2023-03-14T02:23:43;6.77;;;1.10;;
5277;SDS011;2662;51.194;6.614;2023-03-14T02:26:20;3.03;;;1.17;;
5277;SDS011;2662;51.194;6.614;2023-03-14T02:28:53;8.03;;;1.20;;
5277;SDS011;2662;51.194;6.614;2023-03-14T02:31:20;3.40;;;1.10;;
5277;SDS011;2662;51.194;6.614;2023-03-14T02:33:48;6.30;;;1.20;;
5277;SDS011;2662;51.194;6.614;2023-03-14T02:36:16;4.30;;;0.70;;
5277;SDS011;2662;51.194;6.614;2023-03-14T02:38:46;2.93;;;0.90;;
5277;SDS011;2662;51.194;6.614;2023-03-14T02:41:16;3.53;;;0.97;;
5277;SDS011;2662;51.194;6.614;2023-03-14T02:43:42;3.10;;;1.40;;
5277;SDS011;2662;51.194;6.614;2023-03-14T02:46:11;5.97;;;1.50;;
5277;SDS011;2662;51.194;6.614;2023-03-14T02:48:41;4.33;;;0.90;;
5277;SDS011;2662;51.194;6.614;2023-03-14T02:51:11;4.20;;;0.70;;
5277;SDS011;2662;51.194;6.614;2023-03-14T02:53:39;5.10;;;1.13;;
5277;SDS011;2662;51.194;6.614;2023-03-14T02:56:08;8.90;;;1.40;;
5277;SDS011;2662;51.194;6.614;2023-03-14T02:58:36;3.90;;;1.27;;
5277;SDS011;2662;51.194;6.614;2023-03-14T03:01:03;3.93;;;1.10;;
5277;SDS011;2662;51.194;6.614;2023-03-14T03:03:32;8.03;;;1.27;;
5277;SDS011;2662;51.194;6.614;2023-03-14T03:05:58;5.57;;;1.30;;
5277;SDS011;2662;51.194;6.614;2023-03-14T03:08:26;3.07;;;0.90;;
5277;SDS011;2662;51.194;6.614;2023-03-14T03:10:54;7.63;;;1.13;;
5277;SDS011;2662;51.194;6.614;2023-03-14T03:13:21;5.07;;;1.60;;
5277;SDS011;2662;51.194;6.614;2023-03-14T03:15:47;3.87;;;1.20;;
5277;SDS011;2662;51.194;6.614;2023-03-14T03:18:14;6.87;;;1.40;;
5277;SDS011;2662;51.194;6.614;2023-03-14T03:20:43;3.53;;;1.00;;
5277;SDS011;2662;51.194;6.614;2023-03-14T03:23:10;8.10;;;1.23;;
5277;SDS011;2662;51.194;6.614;2023-03-14T03:25:38;5.70;;;1.23;;
5277;SDS011;2662;51.194;6.614;2023-03-14T03:28:04;10.07;;;1.30;;
5277;SDS011;2662;51.194;6.614;2023-03-14T03:30:33;10.00;;;1.70;;
5277;SDS011;2662;51.194;6.614;2023-03-14T03:33:00;7.93;;;1.30;;
5277;SDS011;2662;51.194;6.614;2023-03-14T03:35:26;8.47;;;1.20;;
5277;SDS011;2662;51.194;6.614;2023-03-14T03:37:54;8.10;;;1.47;;
5277;SDS011;2662;51.194;6.614;2023-03-14T03:40:21;8.13;;;1.77;;
5277;SDS011;2662;51.194;6.614;2023-03-14T03:42:48;17.53;;;2.20;;
5277;SDS011;2662;51.194;6.614;2023-03-14T03:45:15;7.87;;;1.40;;
5277;SDS011;2662;51.194;6.614;2023-03-14T03:47:41;11.13;;;1.20;;
5277;SDS011;2662;51.194;6.614;2023-03-14T03:50:08;3.97;;;1.47;;
5277;SDS011;2662;51.194;6.614;2023-03-14T03:52:36;3.90;;;1.20;;
5277;SDS011;2662;51.194;6.614;2023-03-14T03:55:04;6.93;;;2.03;;
5277;SDS011;2662;51.194;6.614;2023-03-14T03:57:31;6.83;;;1.40;;
5277;SDS011;2662;51.194;6.614;2023-03-14T03:59:58;3.17;;;0.97;;
5277;SDS011;2662;51.194;6.614;2023-03-14T04:02:25;12.13;;;1.60;;
5277;SDS011;2662;51.194;6.614;2023-03-14T04:04:51;8.50;;;2.03;;
5277;SDS011;2662;51.194;6.614;2023-03-14T04:07:18;5.57;;;1.37;;
5277;SDS011;2662;51.194;6.614;2023-03-14T04:09:45;5.80;;;1.70;;
5277;SDS011;2662;51.194;6.614;2023-03-14T04:12:13;2.00;;;1.17;;
5277;SDS011;2662;51.194;6.614;2023-03-14T04:14:39;8.53;;;1.13;;
5277;SDS011;2662;51.194;6.614;2023-03-14T04:17:07;1.40;;;0.70;;
5277;SDS011;2662;51.194;6.614;2023-03-14T04:19:33;0.50;;;0.40;;
5277;SDS011;2662;51.194;6.614;2023-03-14T04:22:00;3.90;;;0.60;;
5277;SDS011;2662;51.194;6.614;2023-03-14T04:24:27;2.97;;;0.60;;
5277;SDS011;2662;51.194;6.614;2023-03-14T04:26:53;0.50;;;0.50;;
5277;SDS011;2662;51.194;6.614;2023-03-14T04:29:21;3.03;;;0.80;;
5277;SDS011;2662;51.194;6.614;2023-03-14T04:31:48;2.40;;;1.00;;
5277;SDS011;2662;51.194;6.614;2023-03-14T04:34:15;0.70;;;0.70;;
5277;SDS011;2662;51.194;6.614;2023-03-14T04:36:41;5.90;;;0.90;;
5277;SDS011;2662;51.194;6.614;2023-03-14T04:39:08;7.80;;;1.30;;
5277;SDS011;2662;51.194;6.614;2023-03-14T04:41:35;2.77;;;1.00;;
5277;SDS011;2662;51.194;6.614;2023-03-14T04:44:01;1.47;;;0.80;;
5277;SDS011;2662;51.194;6.614;2023-03-14T04:46:30;4.60;;;0.93;;
5277;SDS011;2662;51.194;6.614;2023-03-14T04:48:56;10.70;;;1.10;;
5277;SDS011;2662;51.194;6.614;2023-03-14T04:51:23;2.60;;;1.00;;
5277;SDS011;2662;51.194;6.614;2023-03-14T04:53:52;3.60;;;0.83;;
5277;SDS011;2662;51.194;6.614;2023-03-14T04:56:19;3.90;;;0.70;;
5277;SDS011;2662;51.194;6.614;2023-03-14T04:58:46;1.10;;;0.53;;
5277;SDS011;2662;51.194;6.614;2023-03-14T05:01:13;2.13;;;0.73;;
5277;SDS011;2662;51.194;6.614;2023-03-14T05:03:41;2.10;;;0.50;;
5277;SDS011;2662;51.194;6.614;2023-03-14T05:06:08;0.50;;;0.47;;
5277;SDS011;2662;51.194;6.614;2023-03-14T05:08:34;1.80;;;0.50;;
5277;SDS011;2662;51.194;6.614;2023-03-14T05:11:01;0.40;;;0.40;;
5277;SDS011;2662;51.194;6.614;2023-03-14T05:13:28;0.50;;;0.50;;
5277;SDS011;2662;51.194;6.614;2023-03-14T05:16:02;1.20;;;0.50;;
5277;SDS011;2662;51.194;6.614;2023-03-14T05:18:30;0.40;;;0.33;;
5277;SDS011;2662;51.194;6.614;2023-03-14T05:20:58;2.23;;;0.60;;
5277;SDS011;2662;51.194;6.614;2023-03-14T05:23:25;1.50;;;0.50;;
5277;SDS011;2662;51.194;6.614;2023-03-14T05:25:52;1.13;;;0.40;;
5277;SDS011;2662;51.194;6.614;2023-03-14T05:28:18;1.50;;;0.50;;
5277;SDS011;2662;51.194;6.614;2023-03-14T05:30:45;0.90;;;0.50;;
5277;SDS011;2662;51.194;6.614;2023-03-14T05:33:12;0.40;;;0.30;;
5277;SDS011;2662;51.194;6.614;2023-03-14T05:35:39;11.27;;;0.70;;
5277;SDS011;2662;51.194;6.614;2023-03-14T05:38:07;0.83;;;0.30;;
5277;SDS011;2662;51.194;6.614;2023-03-14T05:40:35;0.50;;;0.50;;
5277;SDS011;2662;51.194;6.614;2023-03-14T05:43:01;0.67;;;0.40;;
5277;SDS011;2662;51.194;6.614;2023-03-14T05:45:28;1.03;;;0.40;;
5277;SDS011;2662;51.194;6.614;2023-03-14T05:47:55;3.03;;;0.40;;
5277;SDS011;2662;51.194;6.614;2023-03-14T05:50:21;1.13;;;0.30;;
5277;SDS011;2662;51.194;6.614;2023-03-14T05:52:48;0.50;;;0.30;;
5277;SDS011;2662;51.194;6.614;2023-03-14T05:55:16;0.40;;;0.40;;
5277;SDS011;2662;51.194;6.614;2023-03-14T05:57:43;0.37;;;0.30;;
5277;SDS011;2662;51.194;6.614;2023-03-14T06:00:10;1.60;;;0.40;;
5277;SDS011;2662;51.194;6.614;2023-03-14T06:02:37;0.40;;;0.37;;
5277;SDS011;2662;51.194;6.614;2023-03-14T06:05:04;0.40;;;0.40;;
5277;SDS011;2662;51.194;6.614;2023-03-14T06:07:32;0.30;;;0.30;;
5277;SDS011;2662;51.194;6.614;2023-03-14T06:09:58;0.67;;;0.40;;
5277;SDS011;2662;51.194;6.614;2023-03-14T06:12:26;0.37;;;0.30;;
5277;SDS011;2662;51.194;6.614;2023-03-14T06:14:53;0.40;;;0.40;;
5277;SDS011;2662;51.194;6.614;2023-03-14T06:17:20;0.40;;;0.30;;
5277;SDS011;2662;51.194;6.614;2023-03-14T06:19:47;0.40;;;0.40;;
5277;SDS011;2662;51.194;6.614;2023-03-14T06:22:13;0.37;;;0.30;;
5277;SDS011;2662;51.194;6.614;2023-03-14T06:24:40;0.50;;;0.50;;
5277;SDS011;2662;51.194;6.614;2023-03-14T06:27:07;0.40;;;0.30;;
5277;SDS011;2662;51.194;6.614;2023-03-14T06:29:35;2.20;;;0.30;;
5277;SDS011;2662;51.194;6.614;2023-03-14T06:32:02;0.60;;;0.30;;
5277;SDS011;2662;51.194;6.614;2023-03-14T06:34:29;0.40;;;0.30;;
5277;SDS011;2662;51.194;6.614;2023-03-14T06:36:56;0.40;;;0.30;;
5277;SDS011;2662;51.194;6.614;2023-03-14T06:39:22;0.40;;;0.30;;
5277;SDS011;2662;51.194;6.614;2023-03-14T06:41:49;0.60;;;0.40;;
5277;SDS011;2662;51.194;6.614;2023-03-14T06:44:16;0.40;;;0.40;;
5277;SDS011;2662;51.194;6.614;2023-03-14T06:46:44;2.50;;;0.30;;
5277;SDS011;2662;51.194;6.614;2023-03-14T06:49:11;0.33;;;0.30;;
5277;SDS011;2662;51.194;6.614;2023-03-14T06:51:37;0.50;;;0.40;;
5277;SDS011;2662;51.194;6.614;2023-03-14T06:54:04;0.53;;;0.40;;
5277;SDS011;2662;51.194;6.614;2023-03-14T06:56:31;1.27;;;0.30;;
5277;SDS011;2662;51.194;6.614;2023-03-14T06:58:57;1.60;;;0.60;;
5277;SDS011;2662;51.194;6.614;2023-03-14T07:01:25;0.40;;;0.30;;
5277;SDS011;2662;51.194;6.614;2023-03-14T07:03:55;3.50;;;0.40;;
5277;SDS011;2662;51.194;6.614;2023-03-14T07:06:22;1.43;;;0.40;;
5277;SDS011;2662;51.194;6.614;2023-03-14T07:08:50;1.73;;;0.30;;
5277;SDS011;2662;51.194;6.614;2023-03-14T07:11:16;0.60;;;0.37;;
5277;SDS011;2662;51.194;6.614;2023-03-14T07:13:43;0.50;;;0.40;;
5277;SDS011;2662;51.194;6.614;2023-03-14T07:16:10;1.13;;;0.40;;
5277;SDS011;2662;51.194;6.614;2023-03-14T07:18:37;0.93;;;0.40;;
5277;SDS011;2662;51.194;6.614;2023-03-14T07:21:05;1.07;;;0.40;;
5277;SDS011;2662;51.194;6.614;2023-03-14T07:23:32;6.03;;;0.47;;
5277;SDS011;2662;51.194;6.614;2023-03-14T07:25:59;0.40;;;0.40;;
5277;SDS011;2662;51.194;6.614;2023-03-14T07:28:26;0.40;;;0.30;;
5277;SDS011;2662;51.194;6.614;2023-03-14T07:30:53;0.50;;;0.40;;
5277;SDS011;2662;51.194;6.614;2023-03-14T07:33:20;0.50;;;0.40;;
5277;SDS011;2662;51.194;6.614;2023-03-14T07:35:47;1.40;;;0.50;;
5277;SDS011;2662;51.194;6.614;2023-03-14T07:38:15;0.80;;;0.50;;
5277;SDS011;2662;51.194;6.614;2023-03-14T07:40:42;0.60;;;0.50;;
5277;SDS011;2662;51.194;6.614;2023-03-14T07:43:09;0.70;;;0.50;;
5277;SDS011;2662;51.194;6.614;2023-03-14T07:45:36;1.13;;;0.60;;
5277;SDS011;2662;51.194;6.614;2023-03-14T07:48:03;1.77;;;0.40;;
5277;SDS011;2662;51.194;6.614;2023-03-14T07:50:29;0.50;;;0.50;;
5277;SDS011;2662;51.194;6.614;2023-03-14T07:52:56;1.10;;;0.80;;
5277;SDS011;2662;51.194;6.614;2023-03-14T07:55:24;0.50;;;0.50;;
5277;SDS011;2662;51.194;6.614;2023-03-14T07:57:51;1.00;;;0.50;;
5277;SDS011;2662;51.194;6.614;2023-03-14T08:00:18;0.70;;;0.50;;
5277;SDS011;2662;51.194;6.614;2023-03-14T08:02:45;0.70;;;0.50;;
5277;SDS011;2662;51.194;6.614;2023-03-14T08:05:12;3.27;;;0.50;;
5277;SDS011;2662;51.194;6.614;2023-03-14T08:07:39;1.33;;;0.40;;
5277;SDS011;2662;51.194;6.614;2023-03-14T08:10:06;0.50;;;0.50;;
5277;SDS011;2662;51.194;6.614;2023-03-14T08:12:35;0.50;;;0.50;;
5277;SDS011;2662;51.194;6.614;2023-03-14T08:15:02;0.60;;;0.60;;
5277;SDS011;2662;51.194;6.614;2023-03-14T08:17:29;0.50;;;0.50;;
5277;SDS011;2662;51.194;6.614;2023-03-14T08:19:56;0.50;;;0.50;;
5277;SDS011;2662;51.194;6.614;2023-03-14T08:22:22;1.10;;;0.60;;
5277;SDS011;2662;51.194;6.614;2023-03-14T08:24:49;2.20;;;0.67;;
5277;SDS011;2662;51.194;6.614;2023-03-14T08:27:16;1.17;;;0.50;;
5277;SDS011;2662;51.194;6.614;2023-03-14T08:29:44;3.27;;;0.70;;
5277;SDS011;2662;51.194;6.614;2023-03-14T08:32:10;0.60;;;0.60;;
5277;SDS011;2662;51.194;6.614;2023-03-14T08:34:37;2.10;;;0.50;;
5277;SDS011;2662;51.194;6.614;2023-03-14T08:37:04;0.70;;;0.50;;
5277;SDS011;2662;51.194;6.614;2023-03-14T08:39:31;5.20;;;0.90;;
5277;SDS011;2662;51.194;6.614;2023-03-14T08:41:58;1.03;;;0.70;;
5277;SDS011;2662;51.194;6.614;2023-03-14T08:44:25;8.33;;;1.10;;
5277;SDS011;2662;51.194;6.614;2023-03-14T08:46:53;4.60;;;1.10;;
5277;SDS011;2662;51.194;6.614;2023-03-14T08:49:19;1.07;;;1.00;;
5277;SDS011;2662;51.194;6.614;2023-03-14T08:51:46;1.17;;;0.90;;
5277;SDS011;2662;51.194;6.614;2023-03-14T08:54:13;1.00;;;0.90;;
5277;SDS011;2662;51.194;6.614;2023-03-14T08:56:39;1.90;;;1.07;;
5277;SDS011;2662;51.194;6.614;2023-03-14T08:59:06;2.73;;;0.80;;
5277;SDS011;2662;51.194;6.614;2023-03-14T09:01:35;0.67;;;0.67;;
5277;SDS011;2662;51.194;6.614;2023-03-14T09:06:59;0.60;;;0.60;;
5277;SDS011;2662;51.194;6.614;2023-03-14T09:09:26;3.43;;;0.80;;
5277;SDS011;2662;51.194;6.614;2023-03-14T09:11:53;0.80;;;0.80;;
5277;SDS011;2662;51.194;6.614;2023-03-14T09:14:20;0.50;;;0.50;;
5277;SDS011;2662;51.194;6.614;2023-03-14T09:16:46;0.40;;;0.40;;
5277;SDS011;2662;51.194;6.614;2023-03-14T09:19:13;0.50;;;0.50;;
5277;SDS011;2662;51.194;6.614;2023-03-14T09:21:41;0.40;;;0.40;;
5277;SDS011;2662;51.194;6.614;2023-03-14T09:24:08;0.50;;;0.50;;
5277;SDS011;2662;51.194;6.614;2023-03-14T09:26:34;0.40;;;0.40;;
5277;SDS011;2662;51.194;6.614;2023-03-14T09:29:01;0.40;;;0.37;;
5277;SDS011;2662;51.194;6.614;2023-03-14T09:31:28;2.00;;;0.40;;
5277;SDS011;2662;51.194;6.614;2023-03-14T09:33:56;1.47;;;0.50;;
5277;SDS011;2662;51.194;6.614;2023-03-14T09:36:22;1.37;;;0.40;;
5277;SDS011;2662;51.194;6.614;2023-03-14T09:38:50;0.40;;;0.40;;
5277;SDS011;2662;51.194;6.614;2023-03-14T09:41:17;0.50;;;0.50;;
5277;SDS011;2662;51.194;6.614;2023-03-14T09:43:47;0.60;;;0.60;;
5277;SDS011;2662;51.194;6.614;2023-03-14T09:46:22;0.70;;;0.50;;
5277;SDS011;2662;51.194;6.614;2023-03-14T09:48:48;0.60;;;0.60;;
5277;SDS011;2662;51.194;6.614;2023-03-14T09:51:16;0.53;;;0.53;;
5277;SDS011;2662;51.194;6.614;2023-03-14T09:53:45;1.10;;;0.60;;
5277;SDS011;2662;51.194;6.614;2023-03-14T09:56:16;2.20;;;0.53;;
5277;SDS011;2662;51.194;6.614;2023-03-14T09:58:47;0.70;;;0.70;;
5277;SDS011;2662;51.194;6.614;2023-03-14T10:01:18;0.40;;;0.40;;
5277;SDS011;2662;51.194;6.614;2023-03-14T10:03:50;1.33;;;0.67;;
5277;SDS011;2662;51.194;6.614;2023-03-14T10:06:18;2.43;;;0.70;;
5277;SDS011;2662;51.194;6.614;2023-03-14T10:08:46;1.90;;;0.70;;
5277;SDS011;2662;51.194;6.614;2023-03-14T10:11:14;1.07;;;0.60;;
5277;SDS011;2662;51.194;6.614;2023-03-14T10:13:50;1.93;;;0.60;;
5277;SDS011;2662;51.194;6.614;2023-03-14T10:16:29;1.07;;;0.93;;
5277;SDS011;2662;51.194;6.614;2023-03-14T10:19:01;1.00;;;1.00;;
5277;SDS011;2662;51.194;6.614;2023-03-14T10:21:29;3.97;;;1.13;;
5277;SDS011;2662;51.194;6.614;2023-03-14T10:24:06;2.13;;;1.20;;
5277;SDS011;2662;51.194;6.614;2023-03-14T10:26:36;1.90;;;1.00;;
5277;SDS011;2662;51.194;6.614;2023-03-14T10:29:03;1.13;;;1.03;;
5277;SDS011;2662;51.194;6.614;2023-03-14T10:31:45;4.00;;;1.27;;
5277;SDS011;2662;51.194;6.614;2023-03-14T10:34:15;1.87;;;1.50;;
5277;SDS011;2662;51.194;6.614;2023-03-14T10:36:43;3.83;;;1.47;;
5277;SDS011;2662;51.194;6.614;2023-03-14T10:39:22;1.57;;;1.30;;
5277;SDS011;2662;51.194;6.614;2023-03-14T10:41:55;3.53;;;2.00;;
5277;SDS011;2662;51.194;6.614;2023-03-14T10:44:29;5.37;;;1.67;;
5277;SDS011;2662;51.194;6.614;2023-03-14T10:46:58;3.20;;;2.10;;
5277;SDS011;2662;51.194;6.614;2023-03-14T10:49:28;1.57;;;1.47;;
5277;SDS011;2662;51.194;6.614;2023-03-14T10:51:55;7.90;;;2.03;;
5277;SDS011;2662;51.194;6.614;2023-03-14T10:54:29;4.77;;;1.90;;
5277;SDS011;2662;51.194;6.614;2023-03-14T10:56:58;1.40;;;1.30;;
5277;SDS011;2662;51.194;6.614;2023-03-14T10:59:26;4.33;;;1.20;;
5277;SDS011;2662;51.194;6.614;2023-03-14T11:02:01;0.87;;;0.80;;
5277;SDS011;2662;51.194;6.614;2023-03-14T11:04:42;2.30;;;0.73;;
5277;SDS011;2662;51.194;6.614;2023-03-14T11:07:19;10.70;;;0.90;;
5277;SDS011;2662;51.194;6.614;2023-03-14T11:09:53;1.00;;;0.77;;
5277;SDS011;2662;51.194;6.614;2023-03-14T11:12:36;0.80;;;0.77;;
5277;SDS011;2662;51.194;6.614;2023-03-14T11:15:11;3.80;;;1.07;;
5277;SDS011;2662;51.194;6.614;2023-03-14T11:17:46;0.63;;;0.63;;
5277;SDS011;2662;51.194;6.614;2023-03-14T11:20:31;1.17;;;0.97;;
5277;SDS011;2662;51.194;6.614;2023-03-14T11:23:07;5.23;;;1.23;;
5277;SDS011;2662;51.194;6.614;2023-03-14T11:25:40;3.87;;;1.03;;
5277;SDS011;2662;51.194;6.614;2023-03-14T11:28:18;2.90;;;1.13;;
5277;SDS011;2662;51.194;6.614;2023-03-14T11:30:52;0.60;;;0.60;;
5277;SDS011;2662;51.194;6.614;2023-03-14T11:33:21;3.13;;;1.07;;
5277;SDS011;2662;51.194;6.614;2023-03-14T11:35:53;2.67;;;0.60;;
5277;SDS011;2662;51.194;6.614;2023-03-14T11:38:29;2.20;;;0.80;;
5277;SDS011;2662;51.194;6.614;2023-03-14T11:41:00;1.80;;;0.70;;
5277;SDS011;2662;51.194;6.614;2023-03-14T11:43:29;0.80;;;0.60;;
5277;SDS011;2662;51.194;6.614;2023-03-14T11:46:01;0.70;;;0.70;;
5277;SDS011;2662;51.194;6.614;2023-03-14T11:48:35;2.87;;;0.90;;
5277;SDS011;2662;51.194;6.614;2023-03-14T11:51:07;1.40;;;0.60;;
5277;SDS011;2662;51.194;6.614;2023-03-14T11:53:41;2.30;;;0.90;;
5277;SDS011;2662;51.194;6.614;2023-03-14T11:56:16;1.03;;;0.73;;
5277;SDS011;2662;51.194;6.614;2023-03-14T11:58:51;1.73;;;0.80;;
5277;SDS011;2662;51.194;6.614;2023-03-14T12:01:23;1.37;;;0.80;;
5277;SDS011;2662;51.194;6.614;2023-03-14T12:04:00;1.23;;;0.60;;
5277;SDS011;2662;51.194;6.614;2023-03-14T12:06:33;2.33;;;0.60;;
5277;SDS011;2662;51.194;6.614;2023-03-14T12:09:06;0.70;;;0.63;;
5277;SDS011;2662;51.194;6.614;2023-03-14T12:11:36;0.80;;;0.60;;
5277;SDS011;2662;51.194;6.614;2023-03-14T12:14:18;2.00;;;0.70;;
5277;SDS011;2662;51.194;6.614;2023-03-14T12:16:48;4.00;;;0.80;;
5277;SDS011;2662;51.194;6.614;2023-03-14T12:19:26;0.70;;;0.60;;
5277;SDS011;2662;51.194;6.614;2023-03-14T12:22:21;0.70;;;0.60;;
5277;SDS011;2662;51.194;6.614;2023-03-14T12:24:53;4.10;;;0.80;;
5277;SDS011;2662;51.194;6.614;2023-03-14T12:30:33;1.00;;;0.70;;
5277;SDS011;2662;51.194;6.614;2023-03-14T12:33:20;3.47;;;0.70;;
5277;SDS011;2662;51.194;6.614;2023-03-14T12:35:57;0.97;;;0.70;;
5277;SDS011;2662;51.194;6.614;2023-03-14T12:38:28;3.23;;;0.73;;
5277;SDS011;2662;51.194;6.614;2023-03-14T12:41:05;4.00;;;0.70;;
5277;SDS011;2662;51.194;6.614;2023-03-14T12:43:39;2.70;;;0.70;;
5277;SDS011;2662;51.194;6.614;2023-03-14T12:46:08;1.00;;;0.90;;
5277;SDS011;2662;51.194;6.614;2023-03-14T12:48:43;2.90;;;1.03;;
5277;SDS011;2662;51.194;6.614;2023-03-14T12:51:14;2.20;;;0.90;;
5277;SDS011;2662;51.194;6.614;2023-03-14T12:56:57;7.23;;;1.30;;
5277;SDS011;2662;51.194;6.614;2023-03-14T12:59:31;5.37;;;1.10;;
5277;SDS011;2662;51.194;6.614;2023-03-14T13:02:02;11.63;;;1.73;;
5277;SDS011;2662;51.194;6.614;2023-03-14T13:04:52;4.10;;;0.90;;
5277;SDS011;2662;51.194;6.614;2023-03-14T13:07:31;8.80;;;1.83;;
5277;SDS011;2662;51.194;6.614;2023-03-14T13:10:23;9.07;;;2.40;;
5277;SDS011;2662;51.194;6.614;2023-03-14T13:12:51;7.63;;;2.23;;
5277;SDS011;2662;51.194;6.614;2023-03-14T13:15:23;10.47;;;1.80;;
5277;SDS011;2662;51.194;6.614;2023-03-14T13:17:53;13.50;;;2.00;;
5277;SDS011;2662;51.194;6.614;2023-03-14T13:20:27;17.67;;;3.10;;
5277;SDS011;2662;51.194;6.614;2023-03-14T13:22:56;22.00;;;2.07;;
5277;SDS011;2662;51.194;6.614;2023-03-14T13:25:24;12.23;;;1.93;;
5277;SDS011;2662;51.194;6.614;2023-03-14T13:27:56;13.73;;;1.20;;
5277;SDS011;2662;51.194;6.614;2023-03-14T13:30:23;13.60;;;2.07;;
5277;SDS011;2662;51.194;6.614;2023-03-14T13:32:52;15.00;;;2.00;;
5277;SDS011;2662;51.194;6.614;2023-03-14T13:35:21;19.10;;;2.40;;
5277;SDS011;2662;51.194;6.614;2023-03-14T13:37:55;10.13;;;1.53;;
5277;SDS011;2662;51.194;6.614;2023-03-14T13:40:28;11.30;;;1.67;;
5277;SDS011;2662;51.194;6.614;2023-03-14T13:43:04;19.77;;;2.40;;
5277;SDS011;2662;51.194;6.614;2023-03-14T13:45:43;6.73;;;1.67;;
5277;SDS011;2662;51.194;6.614;2023-03-14T13:48:11;10.53;;;2.33;;
5277;SDS011;2662;51.194;6.614;2023-03-14T13:50:44;7.13;;;1.40;;
5277;SDS011;2662;51.194;6.614;2023-03-14T13:53:18;13.10;;;1.60;;
5277;SDS011;2662;51.194;6.614;2023-03-14T13:55:46;14.10;;;2.23;;
5277;SDS011;2662;51.194;6.614;2023-03-14T13:58:19;9.80;;;1.70;;
5277;SDS011;2662;51.194;6.614;2023-03-14T14:00:56;15.60;;;2.13;;
5277;SDS011;2662;51.194;6.614;2023-03-14T14:03:26;13.53;;;2.50;;
5277;SDS011;2662;51.194;6.614;2023-03-14T14:05:54;15.50;;;2.40;;
5277;SDS011;2662;51.194;6.614;2023-03-14T14:08:23;12.07;;;1.80;;
5277;SDS011;2662;51.194;6.614;2023-03-14T14:10:52;11.83;;;2.30;;
5277;SDS011;2662;51.194;6.614;2023-03-14T14:13:21;13.97;;;2.37;;
5277;SDS011;2662;51.194;6.614;2023-03-14T14:15:51;8.73;;;1.60;;
5277;SDS011;2662;51.194;6.614;2023-03-14T14:18:19;19.73;;;2.60;;
5277;SDS011;2662;51.194;6.614;2023-03-14T14:20:48;20.97;;;2.30;;
5277;SDS011;2662;51.194;6.614;2023-03-14T14:23:16;18.10;;;2.40;;
5277;SDS011;2662;51.194;6.614;2023-03-14T14:25:49;15.50;;;1.90;;
5277;SDS011;2662;51.194;6.614;2023-03-14T14:28:21;9.60;;;1.40;;
5277;SDS011;2662;51.194;6.614;2023-03-14T14:30:59;8.07;;;2.10;;
5277;SDS011;2662;51.194;6.614;2023-03-14T14:33:37;9.53;;;2.47;;
5277;SDS011;2662;51.194;6.614;2023-03-14T14:36:12;13.93;;;2.13;;
5277;SDS011;2662;51.194;6.614;2023-03-14T14:38:49;11.00;;;2.43;;
5277;SDS011;2662;51.194;6.614;2023-03-14T14:41:18;14.30;;;2.17;;
5277;SDS011;2662;51.194;6.614;2023-03-14T14:43:45;17.90;;;2.73;;
5277;SDS011;2662;51.194;6.614;2023-03-14T14:46:14;12.80;;;2.03;;
5277;SDS011;2662;51.194;6.614;2023-03-14T14:48:44;13.50;;;1.90;;
5277;SDS011;2662;51.194;6.614;2023-03-14T14:51:22;7.77;;;1.87;;
5277;SDS011;2662;51.194;6.614;2023-03-14T14:53:59;4.00;;;1.33;;
5277;SDS011;2662;51.194;6.614;2023-03-14T14:56:29;11.17;;;1.47;;
5277;SDS011;2662;51.194;6.614;2023-03-14T14:58:57;16.10;;;1.83;;
5277;SDS011;2662;51.194;6.614;2023-03-14T15:01:30;6.50;;;1.30;;
5277;SDS011;2662;51.194;6.614;2023-03-14T15:04:00;6.67;;;1.33;;
5277;SDS011;2662;51.194;6.614;2023-03-14T15:06:28;7.17;;;1.50;;
5277;SDS011;2662;51.194;6.614;2023-03-14T15:08:55;8.13;;;1.17;;
5277;SDS011;2662;51.194;6.614;2023-03-14T15:11:24;4.50;;;1.00;;
5277;SDS011;2662;51.194;6.614;2023-03-14T15:13:53;8.13;;;1.13;;
5277;SDS011;2662;51.194;6.614;2023-03-14T15:16:20;2.90;;;1.20;;
5277;SDS011;2662;51.194;6.614;2023-03-14T15:18:49;8.60;;;1.40;;
5277;SDS011;2662;51.194;6.614;2023-03-14T15:21:20;8.30;;;2.47;;
5277;SDS011;2662;51.194;6.614;2023-03-14T15:23:47;8.60;;;0.97;;
5277;SDS011;2662;51.194;6.614;2023-03-14T15:26:14;10.67;;;1.73;;
5277;SDS011;2662;51.194;6.614;2023-03-14T15:28:43;4.27;;;1.10;;
5277;SDS011;2662;51.194;6.614;2023-03-14T15:31:12;10.57;;;1.47;;
5277;SDS011;2662;51.194;6.614;2023-03-14T15:33:40;4.57;;;1.13;;
5277;SDS011;2662;51.194;6.614;2023-03-14T15:36:14;4.50;;;1.10;;
5277;SDS011;2662;51.194;6.614;2023-03-14T15:38:46;6.60;;;1.17;;